Avocado (520, 521) Station Data

Red Flag Warning: No
Fire Weather Zone: 250
SDGE Region: North East
Lat/Lon: 33.392/-117.255

Observations

Time Wind Speed/Gust Temp(F) RH Fuel Moist Fuel Temp(F) Dewpt(F) Tmax(F) Tmin(F) Accum Precip 10-min Precip SL Press(mb)
5/24 8:30am 240 9 G 18 61° 95% - - 60° 68.3° 55.7° - - 1009.0
5/24 8:20am 349 2 G 5 57° 100% - - 57° 57.8° 54.9° - - -
5/24 8:10am 305 1 G 3 57° 100% - - 57° 57.6° 54.9° - - -
5/24 8:00am 328 2 G 4 57° 100% - - 57° 57.6° 54.9° - - -
5/24 7:50am 8 3 G 4 57° 100% - - 57° 57.4° 54.9° - - -
5/24 7:40am 45 1 G 4 57° 100% - - 57° 57.4° 54.9° - - -
5/24 7:30am 3 1 G 2 57° 100% - - 57° 57.4° 54.9° - - -
5/24 7:20am 325 1 G 2 57° 100% - - 57° 57.2° 54.9° - - -
5/24 7:10am 214 2 G 4 57° 100% - - 57° 57.2° 54.9° - - -
5/24 7:00am 218 3 G 6 56° 100% - - 57° 57.2° 54.9° - - -
5/24 6:50am 263 1 G 3 56° 100% - - 56° 57.2° 54.9° - - -
5/24 6:40am 274 0 G 2 56° 100% - - 56° 57.2° 54.9° - - -
5/24 6:30am 251 1 G 3 56° 100% - - 56° 57.2° 54.9° - - -
5/24 6:20am 273 1 G 3 56° 100% - - 56° 57.2° 54.9° - - -
5/24 6:10am 230 2 G 4 56° 100% - - 56° 57.2° 54.9° - - -
5/24 6:00am 197 1 G 2 55° 100% - - 55° 57.2° 54.9° - - -
5/24 5:50am 3 1 G 3 55° 100% - - 55° 57.2° 54.9° - - -
5/24 5:40am 329 2 G 3 55° 100% - - 55° 57.2° 54.9° - - -
5/24 5:30am 5 3 G 6 55° 100% - - 55° 57.2° 55.2° - - -
5/24 5:20am 3 5 G 6 55° 100% - - 55° 57.2° 55.2° - - -
5/24 5:10am 5 5 G 7 56° 100% - - 56° 57.2° 55.5° - - -
5/24 5:00am 2 4 G 7 56° 100% - - 56° 57.2° 55.8° - - -
5/24 4:50am 10 4 G 7 56° 100% - - 56° 57.2° 56° - - -
5/24 4:40am 12 4 G 6 56° 100% - - 56° 57.2° 56.1° - - -
5/24 4:30am 2 4 G 6 56° 100% - - 56° 57.2° 56.1° - - -
5/24 4:20am 6 3 G 5 57° 100% - - 57° 57.2° 56.1° - - -
5/24 4:10am 355 1 G 2 57° 100% - - 57° 57.2° 56.1° - - -
5/24 4:00am 241 1 G 3 57° 100% - - 57° 57.2° 56.1° - - -
5/24 3:50am 176 2 G 4 57° 100% - - 57° 57.2° 56.1° - - -
5/24 3:40am 182 2 G 4 57° 100% - - 57° 57.2° 56.1° - - -
5/24 3:30am 224 1 G 3 57° 100% - - 57° 57.2° 56.1° - - -
5/24 3:20am 232 1 G 3 57° 100% - - 57° 57.2° 56.1° - - -
5/24 3:10am 351 0 G 1 56° 100% - - 56° 57.2° 56.1° - - -
5/24 3:00am 353 1 G 1 56° 100% - - 56° 57.2° 56.1° - - -
5/24 2:50am 334 0 G 1 56° 100% - - 56° 57.2° 56.1° - - -
5/24 2:40am 313 1 G 1 56° 100% - - 56° 57.2° 56.1° - - -
5/24 2:30am 346 0 G 1 56° 100% - - 56° 57.2° 56.1° - - -
5/24 2:20am 19 0 G 1 56° 100% - - 56° 57.2° 56.1° - - -
5/24 2:10am 26 2 G 4 56° 100% - - 56° 57.2° 56.2° - - -
5/24 2:00am 357 2 G 4 57° 100% - - 57° 57.2° 56.2° - - -
5/24 1:50am 298 1 G 3 57° 100% - - 57° 57.2° 56.2° - - -
5/24 1:40am 5 1 G 2 57° 100% - - 57° 57.2° 56.2° - - -
5/24 1:30am 159 0 G 1 57° 100% - - 57° 57.2° 56.2° - - -
5/24 1:20am 4 1 G 2 57° 100% - - 57° 57.2° 56.2° - - -
5/24 1:10am 13 1 G 3 57° 100% - - 57° 57.2° 56.2° - - -
5/24 1:00am 119 1 G 3 57° 100% - - 57° 57.2° 56.2° - - -
5/24 12:50am 228 1 G 3 57° 100% - - 57° 57.2° 56.2° - - -
5/24 12:40am 242 2 G 4 57° 100% - - 57° 57.2° 56.2° - - -
5/24 12:30am 222 2 G 4 57° 100% - - 57° 57.1° 56.2° - - -
5/24 12:20am 227 2 G 4 57° 100% - - 57° 56.9° 56.2° - - -
5/24 12:10am 226 4 G 5 56° 100% - - 57° 56.8° 56.2° - - -
5/24 12:00am 240 4 G 5 57° 100% - - 57° 83.9° 54.3° - - -
5/23 11:50pm 242 5 G 5 58° 100% - - 58° 83.9° 54.3° - - -
5/23 11:40pm 225 4 G 5 58° 100% - - 58° 83.9° 54.3° - - -
5/23 11:30pm 208 2 G 3 58° 100% - - 59° 83.9° 54.3° - - -
5/23 11:20pm 0 0 G 0 59° 100% - - 59° 83.9° 54.3° - - -
5/23 11:10pm 37 0 G 1 59° 100% - - 59° 83.9° 54.3° - - -
5/23 11:00pm 0 0 G 0 59° 100% - - 59° 83.9° 54.3° - - -
5/23 10:50pm 37 0 G 1 59° 100% - - 59° 83.9° 54.3° - - -
5/23 10:40pm 52 0 G 2 60° 100% - - 60° 83.9° 54.3° - - -
5/23 10:30pm 195 0 G 1 60° 100% - - 60° 83.9° 54.3° - - -
5/23 10:20pm 195 1 G 2 60° 100% - - 60° 83.9° 54.3° - - -
5/23 10:10pm 183 2 G 3 60° 100% - - 60° 83.9° 54.3° - - -
5/23 10:00pm 185 2 G 3 60° 100% - - 60° 83.9° 54.3° - - -
5/23 9:50pm 175 1 G 3 60° 100% - - 60° 83.9° 54.3° - - -
5/23 9:40pm 196 3 G 5 60° 100% - - 60° 83.9° 54.3° - - -
5/23 9:30pm 211 4 G 5 60° 100% - - 60° 83.9° 54.3° - - -
5/23 9:20pm 212 3 G 5 61° 100% - - 61° 83.9° 54.3° - - -
5/23 9:10pm 233 4 G 6 61° 100% - - 61° 83.9° 54.3° - - -
5/23 9:00pm 241 5 G 6 62° 100% - - 62° 83.9° 54.3° - - -
5/23 8:50pm 235 5 G 6 63° 100% - - 63° 83.9° 54.3° - - -
5/23 8:40pm 231 5 G 6 64° 100% - - 64° 83.9° 54.3° - - -
5/23 8:30pm 222 4 G 5 64° 99% - - 64° 83.9° 54.3° - - -
5/23 8:20pm 246 3 G 4 65° 93% - - 63° 83.9° 54.3° - - -
5/23 8:10pm 263 4 G 5 65° 88% - - 62° 83.9° 54.3° - - -
5/23 8:00pm 225 1 G 3 66° 86% - - 62° 83.9° 54.3° - - -
5/23 7:50pm 211 2 G 4 67° 84% - - 62° 83.9° 54.3° - - -
5/23 7:40pm 208 3 G 5 67° 81% - - 61° 83.9° 54.3° - - -
5/23 7:30pm 199 2 G 4 68° 79% - - 61° 83.9° 54.3° - - -
5/23 7:20pm 192 2 G 4 69° 75% - - 60° 83.9° 54.3° - - -
5/23 7:10pm 191 2 G 6 70° 71% - - 60° 83.9° 54.3° - - -
5/23 7:00pm 188 2 G 5 70° 70% - - 60° 83.9° 54.3° - - -
5/23 6:50pm 210 3 G 5 70° 69% - - 60° 83.9° 54.3° - - -
5/23 6:40pm 190 3 G 6 70° 69% - - 60° 83.9° 54.3° - - -
5/23 6:30pm 195 3 G 6 70° 69% - - 60° 83.9° 54.3° - - -
5/23 6:20pm 176 3 G 5 70° 69% - - 60° 83.9° 54.3° - - -
5/23 6:10pm 187 3 G 7 70° 69% - - 60° 83.9° 54.3° - - -
5/23 6:00pm 198 5 G 8 70° 70% - - 59° 83.9° 54.3° - - -
5/23 5:50pm 205 6 G 10 70° 68% - - 59° 83.9° 54.3° - - -
5/23 5:40pm 212 5 G 11 71° 67% - - 59° 83.9° 54.3° - - -
5/23 5:30pm 201 5 G 11 70° 68% - - 59° 83.9° 54.3° - - -
5/23 5:20pm 206 6 G 12 71° 66% - - 59° 83.9° 54.3° - - -
5/23 5:10pm 207 7 G 13 72° 63% - - 59° 83.9° 54.3° - - -
5/23 5:00pm 217 7 G 13 75° 56% - - 58° 83.9° 54.3° - - -
5/23 4:50pm 190 6 G 13 77° 50% - - 57° 83.9° 54.3° - - -
5/23 4:40pm 198 5 G 9 77° 48% - - 56° 83.9° 54.3° - - -
5/23 4:30pm 198 5 G 9 77° 49% - - 56° 83.9° 54.3° - - -
5/23 4:20pm 143 3 G 10 77° 48% - - 56° 83.9° 54.3° - - -
5/23 4:10pm 191 4 G 9 77° 50% - - 57° 83.9° 54.3° - - -
5/23 4:00pm 175 4 G 9 76° 51% - - 57° 83.9° 54.3° - - -
5/23 3:50pm 194 5 G 10 76° 51% - - 57° 83.9° 54.3° - - -
5/23 3:40pm 180 5 G 10 77° 51% - - 57° 83.9° 54.3° - - -
5/23 3:30pm 178 4 G 10 77° 52% - - 58° 83.9° 54.3° - - -
5/23 3:20pm 195 5 G 8 75° 54% - - 57° 83.9° 54.3° - - -
5/23 3:10pm 191 6 G 11 75° 54% - - 57° 83.9° 54.3° - - -
5/23 3:00pm 187 4 G 8 75° 54% - - 57° 83.9° 54.3° - - -
5/23 2:50pm 159 4 G 8 74° 56% - - 58° 83.9° 54.3° - - -
5/23 2:40pm 170 4 G 8 74° 58% - - 58° 83.9° 54.3° - - -
5/23 2:30pm 157 5 G 10 72° 60% - - 58° 83.9° 54.3° - - -
5/23 2:20pm 176 6 G 10 73° 58% - - 57° 83.9° 54.3° - - -
5/23 2:10pm 161 4 G 9 74° 58% - - 58° 83.9° 54.3° - - -
5/23 2:00pm 172 6 G 13 72° 60% - - 58° 83.9° 54.3° - - -
5/23 1:50pm 173 6 G 12 72° 60% - - 57° 83.9° 54.3° - - -
5/23 1:40pm 179 7 G 14 72° 59% - - 57° 83.9° 54.3° - - -
5/23 1:30pm 173 6 G 12 73° 58% - - 58° 83.9° 54.3° - - -
5/23 1:20pm 182 7 G 12 74° 56% - - 57° 83.9° 54.3° - - -
5/23 1:10pm 174 5 G 9 74° 56% - - 57° 83.9° 54.3° - - -
5/23 1:00pm 187 7 G 12 73° 57% - - 57° 83.9° 54.3° - - -
5/23 12:50pm 176 5 G 12 73° 60% - - 58° 83.9° 54.3° - - -
5/23 12:40pm 183 6 G 12 72° 61% - - 58° 83.9° 54.3° - - -
5/23 12:30pm 194 7 G 14 71° 63% - - 58° 83.9° 54.3° - - -
5/23 12:20pm 197 7 G 13 72° 61% - - 58° 83.9° 54.3° - - -
5/23 12:10pm 203 7 G 13 73° 60% - - 58° 83.9° 54.3° - - -
5/23 12:00pm 202 8 G 14 73° 58% - - 58° 83.9° 54.3° - - -
5/23 11:50am 199 6 G 13 75° 56% - - 58° 83.9° 54.3° - - -
5/23 11:40am 191 7 G 14 75° 55% - - 58° 83.9° 54.3° - - -
5/23 11:30am 189 7 G 15 76° 54% - - 58° 83.9° 54.3° - - -
5/23 11:20am 194 8 G 13 78° 51% - - 58° 83.9° 54.3° - - -
5/23 11:10am 205 7 G 12 80° 46% - - 58° 83.9° 54.3° - - -
5/23 11:00am 206 7 G 11 79° 48% - - 58° 83.9° 54.3° - - -
5/23 10:50am 206 7 G 11 79° 49% - - 58° 83.9° 54.3° - - -
5/23 10:40am 204 7 G 11 81° 46% - - 58° 83.9° 54.3° - - -
5/23 10:30am 208 5 G 13 83° 43% - - 58° 83.9° 54.3° - - -
5/23 10:20am 153 2 G 7 82° 46% - - 59° 82.6° 54.3° - - -
5/23 10:10am 7 2 G 3 79° 55% - - 62° 80.3° 54.3° - - -
5/23 10:00am 10 3 G 5 76° 65% - - 64° 77.6° 54.3° - - -
5/23 9:50am 12 2 G 4 74° 81% - - 67° 75.4° 54.3° - - -
5/23 9:40am 0 2 G 3 71° 98% - - 71° 72.5° 54.3° - - -
5/23 9:30am 16 2 G 5 69° 100% - - 69° 70.2° 54.3° - - -
5/23 9:20am 17 2 G 5 66° 100% - - 66° 66.8° 54.3° - - -
5/23 9:10am 24 2 G 5 64° 100% - - 64° 65.2° 54.3° - - -
5/23 9:00am 290 2 G 4 62° 100% - - 62° 63.7° 54.3° - - -
5/23 8:50am 244 2 G 4 61° 100% - - 61° 61.8° 54.3° - - -
5/23 8:40am 274 2 G 4 60° 100% - - 60° 61° 54.3° - - -
5/23 8:30am 250 3 G 5 59° 100% - - 59° 59.7° 54.3° - - -
5/23 8:20am 246 3 G 5 58° 100% - - 59° 59° 54.3° - - -
5/23 8:10am 238 2 G 4 58° 100% - - 58° 58.6° 54.3° - - -
5/23 8:00am 215 3 G 4 58° 100% - - 58° 58.3° 54.3° - - -
5/23 7:50am 220 1 G 3 58° 100% - - 58° 58° 54.3° - - -
5/23 7:40am 215 1 G 2 57° 100% - - 57° 57.9° 54.3° - - -
5/23 7:30am 185 1 G 2 57° 100% - - 57° 57.9° 54.3° - - -
5/23 7:20am 338 0 G 2 56° 100% - - 56° 57.9° 54.3° - - -
5/23 7:10am 253 0 G 1 56° 100% - - 56° 57.9° 54.3° - - -
5/23 7:00am 203 1 G 4 55° 100% - - 55° 57.9° 54.3° - - -
5/23 6:50am 192 1 G 3 55° 100% - - 55° 57.9° 54.3° - - -
5/23 6:40am 115 1 G 2 55° 100% - - 55° 57.9° 54.3° - - -
5/23 6:30am 29 0 G 2 55° 100% - - 55° 57.9° 54.3° - - -
5/23 6:20am 334 1 G 2 55° 100% - - 55° 57.9° 54.3° - - -
5/23 6:10am 293 1 G 2 55° 100% - - 55° 57.9° 54.3° - - -
5/23 6:00am 212 1 G 2 55° 100% - - 55° 57.9° 54.3° - - -